sensor_id;sensor_type;location;lat;lon;timestamp;pressure;altitude;pressure_sealevel;temperature;humidity
35848;BME280;22332;51.954;20.118;2023-07-31T00:02:37;99547.31;;;18.73;73.65
35848;BME280;22332;51.954;20.118;2023-07-31T00:05:42;99548.52;;;18.72;73.62
35848;BME280;22332;51.954;20.118;2023-07-31T00:08:48;99552.88;;;18.73;73.74
35848;BME280;22332;51.954;20.118;2023-07-31T00:11:53;99552.25;;;18.74;73.77
35848;BME280;22332;51.954;20.118;2023-07-31T00:14:59;99551.26;;;18.73;73.89
35848;BME280;22332;51.954;20.118;2023-07-31T00:18:04;99559.80;;;18.73;74.00
35848;BME280;22332;51.954;20.118;2023-07-31T00:21:09;99556.89;;;18.75;74.11
35848;BME280;22332;51.954;20.118;2023-07-31T00:24:15;99555.20;;;18.80;74.09
35848;BME280;22332;51.954;20.118;2023-07-31T00:27:20;99557.21;;;18.83;74.14
35848;BME280;22332;51.954;20.118;2023-07-31T00:30:26;99560.70;;;18.84;74.18
35848;BME280;22332;51.954;20.118;2023-07-31T00:33:34;99555.39;;;18.84;74.19
35848;BME280;22332;51.954;20.118;2023-07-31T00:36:41;99557.44;;;18.82;74.37
35848;BME280;22332;51.954;20.118;2023-07-31T00:39:47;99556.33;;;18.79;74.37
35848;BME280;22332;51.954;20.118;2023-07-31T00:42:52;99555.74;;;18.78;74.57
35848;BME280;22332;51.954;20.118;2023-07-31T00:45:58;99553.71;;;18.79;74.65
35848;BME280;22332;51.954;20.118;2023-07-31T00:49:04;99555.11;;;18.82;74.77
35848;BME280;22332;51.954;20.118;2023-07-31T00:52:10;99563.96;;;18.83;75.02
35848;BME280;22332;51.954;20.118;2023-07-31T00:55:16;99565.48;;;18.83;75.08
35848;BME280;22332;51.954;20.118;2023-07-31T00:58:22;99571.75;;;18.81;75.02
35848;BME280;22332;51.954;20.118;2023-07-31T01:01:30;99579.41;;;18.80;75.08
35848;BME280;22332;51.954;20.118;2023-07-31T01:04:35;99578.08;;;18.77;75.17
35848;BME280;22332;51.954;20.118;2023-07-31T01:07:47;99579.75;;;18.72;75.32
35848;BME280;22332;51.954;20.118;2023-07-31T01:10:58;99581.20;;;18.64;75.76
35848;BME280;22332;51.954;20.118;2023-07-31T01:14:06;99589.13;;;18.60;76.30
35848;BME280;22332;51.954;20.118;2023-07-31T01:17:11;99592.14;;;18.54;77.05
35848;BME280;22332;51.954;20.118;2023-07-31T01:20:20;99582.83;;;18.44;77.45
35848;BME280;22332;51.954;20.118;2023-07-31T01:23:49;99580.19;;;18.42;77.02
35848;BME280;22332;51.954;20.118;2023-07-31T01:27:01;99583.55;;;18.41;77.78
35848;BME280;22332;51.954;20.118;2023-07-31T01:30:14;99580.83;;;18.40;77.79
35848;BME280;22332;51.954;20.118;2023-07-31T01:33:19;99582.60;;;18.43;77.95
35848;BME280;22332;51.954;20.118;2023-07-31T01:36:26;99594.98;;;18.46;77.85
35848;BME280;22332;51.954;20.118;2023-07-31T01:39:32;99599.27;;;18.48;77.83
35848;BME280;22332;51.954;20.118;2023-07-31T01:42:37;99603.16;;;18.44;78.71
35848;BME280;22332;51.954;20.118;2023-07-31T01:45:43;99608.77;;;18.38;79.23
35848;BME280;22332;51.954;20.118;2023-07-31T01:48:48;99606.70;;;18.31;79.60
35848;BME280;22332;51.954;20.118;2023-07-31T01:51:54;99605.95;;;18.28;78.81
35848;BME280;22332;51.954;20.118;2023-07-31T01:55:00;99607.20;;;18.28;78.99
35848;BME280;22332;51.954;20.118;2023-07-31T01:58:06;99605.80;;;18.24;79.21
35848;BME280;22332;51.954;20.118;2023-07-31T02:01:12;99606.01;;;18.18;80.69
35848;BME280;22332;51.954;20.118;2023-07-31T02:04:17;99602.09;;;18.09;80.35
35848;BME280;22332;51.954;20.118;2023-07-31T02:07:23;99597.09;;;18.06;79.62
35848;BME280;22332;51.954;20.118;2023-07-31T02:10:28;99594.60;;;18.04;79.91
35848;BME280;22332;51.954;20.118;2023-07-31T02:13:34;99597.25;;;18.02;79.85
35848;BME280;22332;51.954;20.118;2023-07-31T02:16:40;99601.68;;;17.97;80.13
35848;BME280;22332;51.954;20.118;2023-07-31T02:19:47;99602.67;;;17.90;79.57
35848;BME280;22332;51.954;20.118;2023-07-31T02:22:53;99600.89;;;17.88;79.74
35848;BME280;22332;51.954;20.118;2023-07-31T02:25:58;99600.20;;;17.88;79.78
35848;BME280;22332;51.954;20.118;2023-07-31T02:29:03;99600.83;;;17.88;79.62
35848;BME280;22332;51.954;20.118;2023-07-31T02:32:09;99607.20;;;17.88;79.78
35848;BME280;22332;51.954;20.118;2023-07-31T02:35:15;99607.84;;;17.86;79.79
35848;BME280;22332;51.954;20.118;2023-07-31T02:38:20;99611.85;;;17.82;80.13
35848;BME280;22332;51.954;20.118;2023-07-31T02:41:26;99616.80;;;17.75;80.63
35848;BME280;22332;51.954;20.118;2023-07-31T02:44:31;99621.27;;;17.71;80.46
35848;BME280;22332;51.954;20.118;2023-07-31T02:47:37;99621.13;;;17.75;80.10
35848;BME280;22332;51.954;20.118;2023-07-31T02:50:42;99619.99;;;17.78;79.99
35848;BME280;22332;51.954;20.118;2023-07-31T02:53:48;99623.96;;;17.77;79.78
35848;BME280;22332;51.954;20.118;2023-07-31T02:56:54;99624.46;;;17.78;80.06
35848;BME280;22332;51.954;20.118;2023-07-31T02:59:59;99624.35;;;17.76;79.67
35848;BME280;22332;51.954;20.118;2023-07-31T03:03:05;99623.00;;;17.82;79.83
35848;BME280;22332;51.954;20.118;2023-07-31T03:06:11;99630.79;;;17.88;79.62
35848;BME280;22332;51.954;20.118;2023-07-31T03:09:16;99633.23;;;17.96;79.53
35848;BME280;22332;51.954;20.118;2023-07-31T03:12:23;99634.10;;;17.98;79.28
35848;BME280;22332;51.954;20.118;2023-07-31T03:15:28;99636.47;;;17.92;79.37
35848;BME280;22332;51.954;20.118;2023-07-31T03:18:34;99640.33;;;17.89;79.25
35848;BME280;22332;51.954;20.118;2023-07-31T03:21:40;99639.64;;;17.86;79.31
35848;BME280;22332;51.954;20.118;2023-07-31T03:24:45;99640.69;;;17.87;79.27
35848;BME280;22332;51.954;20.118;2023-07-31T03:27:51;99638.83;;;17.91;79.06
35848;BME280;22332;51.954;20.118;2023-07-31T03:30:57;99640.61;;;17.99;78.87
35848;BME280;22332;51.954;20.118;2023-07-31T03:34:02;99638.54;;;18.01;78.77
35848;BME280;22332;51.954;20.118;2023-07-31T03:37:08;99645.86;;;18.05;78.73
35848;BME280;22332;51.954;20.118;2023-07-31T03:40:14;99650.17;;;18.05;78.62
35848;BME280;22332;51.954;20.118;2023-07-31T03:43:20;99655.02;;;18.08;78.60
35848;BME280;22332;51.954;20.118;2023-07-31T03:46:26;99658.14;;;18.12;78.56
35848;BME280;22332;51.954;20.118;2023-07-31T03:49:32;99661.27;;;18.19;78.69
35848;BME280;22332;51.954;20.118;2023-07-31T03:52:38;99658.29;;;18.23;78.50
35848;BME280;22332;51.954;20.118;2023-07-31T03:55:44;99659.51;;;18.27;78.52
35848;BME280;22332;51.954;20.118;2023-07-31T03:58:49;99663.06;;;18.28;78.23
35848;BME280;22332;51.954;20.118;2023-07-31T04:01:55;99665.39;;;18.22;78.24
35848;BME280;22332;51.954;20.118;2023-07-31T04:05:00;99671.49;;;18.17;78.38
35848;BME280;22332;51.954;20.118;2023-07-31T04:08:06;99675.26;;;18.14;78.36
35848;BME280;22332;51.954;20.118;2023-07-31T04:11:12;99680.33;;;18.12;78.48
35848;BME280;22332;51.954;20.118;2023-07-31T04:14:17;99683.88;;;18.16;78.45
35848;BME280;22332;51.954;20.118;2023-07-31T04:17:23;99682.67;;;18.16;78.32
35848;BME280;22332;51.954;20.118;2023-07-31T04:20:28;99679.39;;;18.17;78.39
35848;BME280;22332;51.954;20.118;2023-07-31T04:23:34;99681.85;;;18.23;78.19
35848;BME280;22332;51.954;20.118;2023-07-31T04:26:39;99682.45;;;18.26;78.01
35848;BME280;22332;51.954;20.118;2023-07-31T04:29:45;99684.19;;;18.27;77.89
35848;BME280;22332;51.954;20.118;2023-07-31T04:32:51;99683.47;;;18.21;77.53
35848;BME280;22332;51.954;20.118;2023-07-31T04:35:57;99685.98;;;18.24;77.60
35848;BME280;22332;51.954;20.118;2023-07-31T04:39:03;99690.50;;;18.34;77.19
35848;BME280;22332;51.954;20.118;2023-07-31T04:42:08;99691.61;;;18.35;76.89
35848;BME280;22332;51.954;20.118;2023-07-31T04:45:14;99696.85;;;18.43;76.94
35848;BME280;22332;51.954;20.118;2023-07-31T04:48:20;99697.42;;;18.49;76.28
35848;BME280;22332;51.954;20.118;2023-07-31T04:51:25;99697.81;;;18.48;76.65
35848;BME280;22332;51.954;20.118;2023-07-31T04:54:31;99700.82;;;18.52;76.76
35848;BME280;22332;51.954;20.118;2023-07-31T04:57:36;99701.75;;;18.53;76.37
35848;BME280;22332;51.954;20.118;2023-07-31T05:00:42;99696.77;;;18.41;76.31
35848;BME280;22332;51.954;20.118;2023-07-31T05:03:47;99698.78;;;18.38;76.70
35848;BME280;22332;51.954;20.118;2023-07-31T05:06:53;99697.85;;;18.41;76.58
35848;BME280;22332;51.954;20.118;2023-07-31T05:09:58;99695.30;;;18.43;76.64
35848;BME280;22332;51.954;20.118;2023-07-31T05:13:04;99694.42;;;18.43;76.57
35848;BME280;22332;51.954;20.118;2023-07-31T05:16:10;99697.71;;;18.43;76.27
35848;BME280;22332;51.954;20.118;2023-07-31T05:19:15;99701.63;;;18.42;76.22
35848;BME280;22332;51.954;20.118;2023-07-31T05:22:21;99706.02;;;18.44;76.32
35848;BME280;22332;51.954;20.118;2023-07-31T05:25:26;99709.45;;;18.53;76.21
35848;BME280;22332;51.954;20.118;2023-07-31T05:28:33;99705.20;;;18.64;76.04
35848;BME280;22332;51.954;20.118;2023-07-31T05:31:39;99704.05;;;18.71;75.63
35848;BME280;22332;51.954;20.118;2023-07-31T05:34:44;99708.95;;;18.75;75.90
35848;BME280;22332;51.954;20.118;2023-07-31T05:37:50;99712.60;;;18.80;75.09
35848;BME280;22332;51.954;20.118;2023-07-31T05:40:55;99709.97;;;18.81;75.26
35848;BME280;22332;51.954;20.118;2023-07-31T05:44:01;99710.32;;;18.85;75.20
35848;BME280;22332;51.954;20.118;2023-07-31T05:47:07;99709.01;;;18.93;75.14
35848;BME280;22332;51.954;20.118;2023-07-31T05:50:12;99707.13;;;19.07;74.66
35848;BME280;22332;51.954;20.118;2023-07-31T05:53:18;99711.70;;;19.17;74.72
35848;BME280;22332;51.954;20.118;2023-07-31T05:56:24;99710.66;;;19.25;74.71
35848;BME280;22332;51.954;20.118;2023-07-31T05:59:31;99712.77;;;19.38;74.54
35848;BME280;22332;51.954;20.118;2023-07-31T06:02:37;99716.41;;;19.56;74.52
35848;BME280;22332;51.954;20.118;2023-07-31T06:05:43;99716.70;;;19.68;73.42
35848;BME280;22332;51.954;20.118;2023-07-31T06:08:49;99713.92;;;19.71;73.91
35848;BME280;22332;51.954;20.118;2023-07-31T06:11:55;99714.11;;;19.78;73.62
35848;BME280;22332;51.954;20.118;2023-07-31T06:15:01;99723.73;;;19.89;74.02
35848;BME280;22332;51.954;20.118;2023-07-31T06:18:06;99726.14;;;20.02;73.49
35848;BME280;22332;51.954;20.118;2023-07-31T06:21:12;99730.05;;;20.12;73.54
35848;BME280;22332;51.954;20.118;2023-07-31T06:24:18;99732.95;;;20.29;73.41
35848;BME280;22332;51.954;20.118;2023-07-31T06:27:24;99731.92;;;20.46;73.30
35848;BME280;22332;51.954;20.118;2023-07-31T06:30:30;99734.80;;;20.62;73.07
35848;BME280;22332;51.954;20.118;2023-07-31T06:33:36;99736.23;;;20.59;71.87
35848;BME280;22332;51.954;20.118;2023-07-31T06:36:41;99738.08;;;20.53;71.79
35848;BME280;22332;51.954;20.118;2023-07-31T06:39:47;99738.32;;;20.42;71.52
35848;BME280;22332;51.954;20.118;2023-07-31T06:42:52;99738.83;;;20.38;71.81
35848;BME280;22332;51.954;20.118;2023-07-31T06:45:59;99734.61;;;20.42;72.24
35848;BME280;22332;51.954;20.118;2023-07-31T06:49:05;99734.39;;;20.67;72.39
35848;BME280;22332;51.954;20.118;2023-07-31T06:52:10;99738.66;;;20.90;71.36
35848;BME280;22332;51.954;20.118;2023-07-31T06:55:20;99736.45;;;21.04;70.80
35848;BME280;22332;51.954;20.118;2023-07-31T06:58:26;99735.68;;;21.18;70.96
35848;BME280;22332;51.954;20.118;2023-07-31T07:01:31;99735.86;;;21.37;71.17
35848;BME280;22332;51.954;20.118;2023-07-31T07:04:37;99734.55;;;21.55;70.89
35848;BME280;22332;51.954;20.118;2023-07-31T07:07:43;99732.13;;;21.74;70.58
35848;BME280;22332;51.954;20.118;2023-07-31T07:10:48;99729.90;;;21.87;70.00
35848;BME280;22332;51.954;20.118;2023-07-31T07:13:54;99724.58;;;21.94;69.77
35848;BME280;22332;51.954;20.118;2023-07-31T07:16:59;99719.18;;;22.06;68.96
35848;BME280;22332;51.954;20.118;2023-07-31T07:20:08;99721.58;;;21.91;66.04
35848;BME280;22332;51.954;20.118;2023-07-31T07:23:13;99719.73;;;21.88;68.80
35848;BME280;22332;51.954;20.118;2023-07-31T07:26:19;99712.55;;;22.05;68.86
35848;BME280;22332;51.954;20.118;2023-07-31T07:29:25;99709.85;;;22.20;68.27
35848;BME280;22332;51.954;20.118;2023-07-31T07:32:30;99712.17;;;22.35;68.18
35848;BME280;22332;51.954;20.118;2023-07-31T07:35:36;99712.05;;;22.46;66.72
35848;BME280;22332;51.954;20.118;2023-07-31T07:38:42;99712.50;;;22.54;66.86
35848;BME280;22332;51.954;20.118;2023-07-31T07:41:47;99714.39;;;22.66;66.46
35848;BME280;22332;51.954;20.118;2023-07-31T07:44:53;99715.02;;;22.71;65.41
35848;BME280;22332;51.954;20.118;2023-07-31T07:47:58;99711.20;;;22.77;65.37
35848;BME280;22332;51.954;20.118;2023-07-31T07:51:04;99716.66;;;22.85;64.17
35848;BME280;22332;51.954;20.118;2023-07-31T07:54:09;99716.36;;;22.86;64.20
35848;BME280;22332;51.954;20.118;2023-07-31T07:57:15;99717.34;;;22.93;64.00
35848;BME280;22332;51.954;20.118;2023-07-31T08:00:20;99718.91;;;23.02;63.71
35848;BME280;22332;51.954;20.118;2023-07-31T08:03:26;99714.86;;;22.98;60.97
35848;BME280;22332;51.954;20.118;2023-07-31T08:06:31;99714.16;;;22.99;63.13
35848;BME280;22332;51.954;20.118;2023-07-31T08:09:37;99717.32;;;23.04;61.58
35848;BME280;22332;51.954;20.118;2023-07-31T08:12:43;99719.09;;;23.03;59.51
35848;BME280;22332;51.954;20.118;2023-07-31T08:15:48;99716.27;;;22.84;58.50
35848;BME280;22332;51.954;20.118;2023-07-31T08:18:54;99716.16;;;22.84;60.59
35848;BME280;22332;51.954;20.118;2023-07-31T08:21:59;99720.64;;;22.93;59.81
35848;BME280;22332;51.954;20.118;2023-07-31T08:25:06;99711.84;;;23.09;60.05
35848;BME280;22332;51.954;20.118;2023-07-31T08:28:12;99715.34;;;23.28;60.42
35848;BME280;22332;51.954;20.118;2023-07-31T08:31:18;99721.35;;;23.37;60.21
35848;BME280;22332;51.954;20.118;2023-07-31T08:34:24;99722.92;;;23.45;59.47
35848;BME280;22332;51.954;20.118;2023-07-31T08:37:29;99726.69;;;23.49;58.65
35848;BME280;22332;51.954;20.118;2023-07-31T08:40:37;99734.66;;;23.63;59.57
35848;BME280;22332;51.954;20.118;2023-07-31T08:43:43;99737.66;;;23.63;55.52
35848;BME280;22332;51.954;20.118;2023-07-31T08:46:50;99731.55;;;23.59;57.71
35848;BME280;22332;51.954;20.118;2023-07-31T08:49:56;99730.54;;;23.72;58.15
35848;BME280;22332;51.954;20.118;2023-07-31T08:53:02;99728.13;;;23.86;57.70
35848;BME280;22332;51.954;20.118;2023-07-31T08:56:10;99717.54;;;23.94;56.63
35848;BME280;22332;51.954;20.118;2023-07-31T08:59:18;99718.34;;;23.88;54.11
35848;BME280;22332;51.954;20.118;2023-07-31T09:02:31;99719.08;;;23.63;55.08
35848;BME280;22332;51.954;20.118;2023-07-31T09:05:43;99718.46;;;23.74;56.90
35848;BME280;22332;51.954;20.118;2023-07-31T09:08:50;99715.06;;;23.92;56.68
35848;BME280;22332;51.954;20.118;2023-07-31T09:11:57;99713.58;;;24.01;55.62
35848;BME280;22332;51.954;20.118;2023-07-31T09:15:04;99716.26;;;23.97;54.74
35848;BME280;22332;51.954;20.118;2023-07-31T09:18:14;99716.42;;;23.96;55.09
35848;BME280;22332;51.954;20.118;2023-07-31T09:21:23;99718.27;;;23.91;54.56
35848;BME280;22332;51.954;20.118;2023-07-31T09:24:31;99722.45;;;23.90;54.63
35848;BME280;22332;51.954;20.118;2023-07-31T09:27:48;99716.81;;;23.88;53.65
35848;BME280;22332;51.954;20.118;2023-07-31T09:30:54;99717.73;;;23.72;51.86
35848;BME280;22332;51.954;20.118;2023-07-31T09:34:00;99714.51;;;23.67;54.12
35848;BME280;22332;51.954;20.118;2023-07-31T09:37:06;99713.14;;;23.91;54.56
35848;BME280;22332;51.954;20.118;2023-07-31T09:40:26;99712.23;;;24.17;54.78
35848;BME280;22332;51.954;20.118;2023-07-31T09:43:32;99715.36;;;24.40;53.69
35848;BME280;22332;51.954;20.118;2023-07-31T09:46:38;99715.29;;;24.53;53.08
35848;BME280;22332;51.954;20.118;2023-07-31T09:49:48;99712.39;;;24.64;53.08
35848;BME280;22332;51.954;20.118;2023-07-31T09:52:53;99707.60;;;24.78;52.65
35848;BME280;22332;51.954;20.118;2023-07-31T09:56:01;99711.94;;;24.87;51.95
35848;BME280;22332;51.954;20.118;2023-07-31T09:59:09;99712.33;;;24.90;51.06
35848;BME280;22332;51.954;20.118;2023-07-31T10:02:20;99710.13;;;24.95;51.86
35848;BME280;22332;51.954;20.118;2023-07-31T10:05:33;99709.57;;;24.92;49.62
35848;BME280;22332;51.954;20.118;2023-07-31T10:08:40;99711.45;;;24.83;50.64
35848;BME280;22332;51.954;20.118;2023-07-31T10:11:51;99712.01;;;24.90;49.76
35848;BME280;22332;51.954;20.118;2023-07-31T10:15:01;99704.73;;;24.94;50.32
35848;BME280;22332;51.954;20.118;2023-07-31T10:18:07;99711.70;;;25.07;49.84
35848;BME280;22332;51.954;20.118;2023-07-31T10:21:14;99707.67;;;25.17;49.30
35848;BME280;22332;51.954;20.118;2023-07-31T10:24:20;99703.16;;;25.19;49.79
35848;BME280;22332;51.954;20.118;2023-07-31T10:27:26;99707.15;;;25.25;49.65
35848;BME280;22332;51.954;20.118;2023-07-31T10:30:35;99701.66;;;25.29;49.54
35848;BME280;22332;51.954;20.118;2023-07-31T10:33:42;99702.52;;;25.38;48.69
35848;BME280;22332;51.954;20.118;2023-07-31T10:36:48;99700.73;;;25.38;48.01
35848;BME280;22332;51.954;20.118;2023-07-31T10:40:00;99701.58;;;25.18;45.70
35848;BME280;22332;51.954;20.118;2023-07-31T10:43:06;99700.95;;;24.93;46.97
35848;BME280;22332;51.954;20.118;2023-07-31T10:46:14;99698.45;;;24.88;47.09
35848;BME280;22332;51.954;20.118;2023-07-31T10:49:23;99697.71;;;24.97;47.24
35848;BME280;22332;51.954;20.118;2023-07-31T10:52:35;99695.40;;;24.95;46.96
35848;BME280;22332;51.954;20.118;2023-07-31T10:55:42;99696.64;;;25.02;47.01
35848;BME280;22332;51.954;20.118;2023-07-31T10:59:01;99698.09;;;24.97;47.46
35848;BME280;22332;51.954;20.118;2023-07-31T11:02:25;99693.55;;;24.97;47.73
35848;BME280;22332;51.954;20.118;2023-07-31T11:05:44;99691.08;;;25.17;47.59
35848;BME280;22332;51.954;20.118;2023-07-31T11:08:51;99687.91;;;25.34;47.90
35848;BME280;22332;51.954;20.118;2023-07-31T11:11:57;99685.91;;;25.45;47.06
35848;BME280;22332;51.954;20.118;2023-07-31T11:15:02;99684.50;;;25.37;46.93
35848;BME280;22332;51.954;20.118;2023-07-31T11:18:08;99687.81;;;25.56;47.66
35848;BME280;22332;51.954;20.118;2023-07-31T11:21:17;99685.23;;;25.74;47.50
35848;BME280;22332;51.954;20.118;2023-07-31T11:24:23;99676.02;;;25.81;47.06
35848;BME280;22332;51.954;20.118;2023-07-31T11:27:30;99684.23;;;25.90;46.53
35848;BME280;22332;51.954;20.118;2023-07-31T11:30:37;99682.15;;;25.96;46.89
35848;BME280;22332;51.954;20.118;2023-07-31T11:33:42;99682.36;;;25.96;46.16
35848;BME280;22332;51.954;20.118;2023-07-31T11:36:55;99682.65;;;25.88;46.14
35848;BME280;22332;51.954;20.118;2023-07-31T11:40:02;99681.23;;;25.79;45.91
35848;BME280;22332;51.954;20.118;2023-07-31T11:43:08;99683.98;;;25.69;45.93
35848;BME280;22332;51.954;20.118;2023-07-31T11:46:14;99679.55;;;25.64;46.34
35848;BME280;22332;51.954;20.118;2023-07-31T11:49:20;99678.96;;;25.69;46.63
35848;BME280;22332;51.954;20.118;2023-07-31T11:52:26;99671.61;;;25.73;46.43
35848;BME280;22332;51.954;20.118;2023-07-31T11:55:33;99669.96;;;25.71;46.02
35848;BME280;22332;51.954;20.118;2023-07-31T11:58:39;99666.65;;;25.78;46.45
35848;BME280;22332;51.954;20.118;2023-07-31T12:01:46;99661.49;;;25.90;46.34
35848;BME280;22332;51.954;20.118;2023-07-31T12:04:54;99655.27;;;26.10;46.67
35848;BME280;22332;51.954;20.118;2023-07-31T12:08:10;99652.02;;;26.24;46.31
35848;BME280;22332;51.954;20.118;2023-07-31T12:11:19;99651.38;;;26.35;45.94
35848;BME280;22332;51.954;20.118;2023-07-31T12:14:25;99650.12;;;26.38;45.40
35848;BME280;22332;51.954;20.118;2023-07-31T12:17:32;99648.48;;;26.27;44.87
35848;BME280;22332;51.954;20.118;2023-07-31T12:20:41;99647.04;;;26.21;44.18
35848;BME280;22332;51.954;20.118;2023-07-31T12:23:49;99640.05;;;26.27;44.94
35848;BME280;22332;51.954;20.118;2023-07-31T12:26:57;99633.70;;;26.45;44.31
35848;BME280;22332;51.954;20.118;2023-07-31T12:30:04;99628.61;;;26.51;44.26
35848;BME280;22332;51.954;20.118;2023-07-31T12:33:14;99624.92;;;26.62;44.34
35848;BME280;22332;51.954;20.118;2023-07-31T12:36:22;99624.91;;;26.70;43.52
35848;BME280;22332;51.954;20.118;2023-07-31T12:39:28;99617.04;;;26.65;43.55
35848;BME280;22332;51.954;20.118;2023-07-31T12:42:33;99613.70;;;26.60;42.37
35848;BME280;22332;51.954;20.118;2023-07-31T12:45:39;99609.64;;;26.57;43.29
35848;BME280;22332;51.954;20.118;2023-07-31T12:48:45;99601.75;;;26.72;43.57
35848;BME280;22332;51.954;20.118;2023-07-31T12:51:50;99599.73;;;26.71;42.54
35848;BME280;22332;51.954;20.118;2023-07-31T12:54:56;99595.69;;;26.64;42.71
35848;BME280;22332;51.954;20.118;2023-07-31T12:58:01;99596.39;;;26.57;42.23
35848;BME280;22332;51.954;20.118;2023-07-31T13:01:07;99592.61;;;26.51;42.57
35848;BME280;22332;51.954;20.118;2023-07-31T13:04:12;99589.23;;;26.36;42.86
35848;BME280;22332;51.954;20.118;2023-07-31T13:07:19;99587.91;;;26.09;42.93
35848;BME280;22332;51.954;20.118;2023-07-31T13:10:25;99586.11;;;25.85;43.21
35848;BME280;22332;51.954;20.118;2023-07-31T13:13:31;99586.64;;;25.62;43.20
35848;BME280;22332;51.954;20.118;2023-07-31T13:16:36;99586.48;;;25.45;43.29
35848;BME280;22332;51.954;20.118;2023-07-31T13:19:42;99580.02;;;25.38;43.59
35848;BME280;22332;51.954;20.118;2023-07-31T13:22:47;99580.84;;;25.41;43.45
35848;BME280;22332;51.954;20.118;2023-07-31T13:25:53;99573.49;;;25.47;43.77
35848;BME280;22332;51.954;20.118;2023-07-31T13:28:58;99567.93;;;25.55;43.77
35848;BME280;22332;51.954;20.118;2023-07-31T13:32:05;99563.17;;;25.75;43.73
35848;BME280;22332;51.954;20.118;2023-07-31T13:35:11;99556.80;;;26.07;43.88
35848;BME280;22332;51.954;20.118;2023-07-31T13:38:16;99552.42;;;26.29;43.53
35848;BME280;22332;51.954;20.118;2023-07-31T13:41:22;99551.48;;;26.33;43.30
35848;BME280;22332;51.954;20.118;2023-07-31T13:44:28;99548.55;;;26.28;43.36
35848;BME280;22332;51.954;20.118;2023-07-31T13:47:36;99549.08;;;26.28;43.50
35848;BME280;22332;51.954;20.118;2023-07-31T13:50:41;99546.09;;;26.15;43.34
35848;BME280;22332;51.954;20.118;2023-07-31T13:53:47;99544.48;;;25.97;43.58
35848;BME280;22332;51.954;20.118;2023-07-31T13:56:53;99538.70;;;25.82;43.65
35848;BME280;22332;51.954;20.118;2023-07-31T14:00:08;99536.98;;;25.66;43.42
35848;BME280;22332;51.954;20.118;2023-07-31T14:03:14;99535.38;;;25.57;43.71
35848;BME280;22332;51.954;20.118;2023-07-31T14:06:20;99533.20;;;25.61;43.79
35848;BME280;22332;51.954;20.118;2023-07-31T14:09:26;99528.64;;;25.80;43.58
35848;BME280;22332;51.954;20.118;2023-07-31T14:12:33;99518.89;;;26.14;43.80
35848;BME280;22332;51.954;20.118;2023-07-31T14:15:39;99518.31;;;26.46;43.58
35848;BME280;22332;51.954;20.118;2023-07-31T14:18:44;99521.20;;;26.51;42.60
35848;BME280;22332;51.954;20.118;2023-07-31T14:21:51;99518.11;;;26.37;43.06
35848;BME280;22332;51.954;20.118;2023-07-31T14:24:56;99518.29;;;26.29;43.14
35848;BME280;22332;51.954;20.118;2023-07-31T14:28:02;99518.89;;;26.22;43.23
35848;BME280;22332;51.954;20.118;2023-07-31T14:31:07;99514.62;;;26.28;43.04
35848;BME280;22332;51.954;20.118;2023-07-31T14:34:13;99516.98;;;26.14;42.79
35848;BME280;22332;51.954;20.118;2023-07-31T14:37:20;99519.66;;;26.02;42.87
35848;BME280;22332;51.954;20.118;2023-07-31T14:40:25;99517.15;;;25.97;43.09
35848;BME280;22332;51.954;20.118;2023-07-31T14:43:31;99518.06;;;25.91;43.02
35848;BME280;22332;51.954;20.118;2023-07-31T14:46:37;99513.02;;;25.85;43.07
35848;BME280;22332;51.954;20.118;2023-07-31T14:49:42;99512.36;;;25.79;42.95
35848;BME280;22332;51.954;20.118;2023-07-31T14:52:48;99508.17;;;25.60;42.91
35848;BME280;22332;51.954;20.118;2023-07-31T14:55:54;99506.85;;;25.50;43.02
35848;BME280;22332;51.954;20.118;2023-07-31T14:59:00;99503.48;;;25.35;43.10
35848;BME280;22332;51.954;20.118;2023-07-31T15:02:06;99502.91;;;25.16;43.16
35848;BME280;22332;51.954;20.118;2023-07-31T15:05:13;99509.39;;;24.98;43.62
35848;BME280;22332;51.954;20.118;2023-07-31T15:08:19;99505.70;;;24.90;43.66
35848;BME280;22332;51.954;20.118;2023-07-31T15:11:24;99503.52;;;24.87;43.82
35848;BME280;22332;51.954;20.118;2023-07-31T15:14:30;99499.30;;;24.87;43.91
35848;BME280;22332;51.954;20.118;2023-07-31T15:17:36;99495.80;;;24.84;44.21
35848;BME280;22332;51.954;20.118;2023-07-31T15:20:41;99492.91;;;24.76;44.31
35848;BME280;22332;51.954;20.118;2023-07-31T15:23:47;99492.30;;;24.63;44.26
35848;BME280;22332;51.954;20.118;2023-07-31T15:26:52;99489.01;;;24.59;44.49
35848;BME280;22332;51.954;20.118;2023-07-31T15:29:59;99489.05;;;24.65;44.85
35848;BME280;22332;51.954;20.118;2023-07-31T15:33:05;99488.29;;;24.68;44.92
35848;BME280;22332;51.954;20.118;2023-07-31T15:36:10;99484.04;;;24.68;44.86
35848;BME280;22332;51.954;20.118;2023-07-31T15:39:16;99484.34;;;24.71;45.02
35848;BME280;22332;51.954;20.118;2023-07-31T15:42:21;99484.27;;;24.68;45.03
35848;BME280;22332;51.954;20.118;2023-07-31T15:45:27;99484.67;;;24.64;45.12
35848;BME280;22332;51.954;20.118;2023-07-31T15:48:34;99484.03;;;24.57;45.32
35848;BME280;22332;51.954;20.118;2023-07-31T15:51:40;99481.95;;;24.49;45.40
35848;BME280;22332;51.954;20.118;2023-07-31T15:54:45;99483.68;;;24.38;45.60
35848;BME280;22332;51.954;20.118;2023-07-31T15:57:51;99483.21;;;24.24;45.74
35848;BME280;22332;51.954;20.118;2023-07-31T16:00:56;99479.63;;;24.13;45.93
35848;BME280;22332;51.954;20.118;2023-07-31T16:04:03;99484.24;;;24.09;46.08
35848;BME280;22332;51.954;20.118;2023-07-31T16:07:08;99480.90;;;24.07;46.11
35848;BME280;22332;51.954;20.118;2023-07-31T16:10:17;99481.14;;;24.02;46.19
35848;BME280;22332;51.954;20.118;2023-07-31T16:13:22;99482.45;;;23.89;46.42
35848;BME280;22332;51.954;20.118;2023-07-31T16:16:28;99484.18;;;23.80;46.60